createdAt,value
2017-11-13T00:00:20.607Z,6.40
2017-11-13T00:00:54.628Z,4.78
2017-11-13T00:01:28.731Z,4.85
2017-11-13T00:02:03.029Z,4.93
2017-11-13T00:02:36.907Z,4.90
2017-11-13T00:03:10.921Z,4.95
2017-11-13T00:03:44.897Z,5.05
2017-11-13T00:04:18.896Z,5.43
2017-11-13T00:04:52.766Z,4.45
2017-11-13T00:05:26.663Z,4.93
2017-11-13T00:06:00.541Z,5.80
2017-11-13T00:06:34.445Z,4.70
2017-11-13T00:07:08.355Z,5.15
2017-11-13T00:07:42.436Z,4.93
2017-11-13T00:08:16.301Z,5.47
2017-11-13T00:08:50.382Z,5.40
2017-11-13T00:09:24.273Z,5.57
2017-11-13T00:09:58.166Z,4.95
2017-11-13T00:10:32.056Z,4.97
2017-11-13T00:11:05.920Z,4.60
2017-11-13T00:11:39.816Z,5.35
2017-11-13T00:12:13.692Z,5.47
2017-11-13T00:12:47.651Z,4.93
2017-11-13T00:13:21.581Z,4.70
2017-11-13T00:13:55.557Z,4.78
2017-11-13T00:14:29.428Z,4.40
2017-11-13T00:15:03.445Z,4.30
2017-11-13T00:15:37.524Z,5.03
2017-11-13T00:16:11.396Z,4.97
2017-11-13T00:16:45.270Z,4.65
2017-11-13T00:17:19.153Z,4.72
2017-11-13T00:17:53.135Z,4.75
2017-11-13T00:18:27.103Z,4.90
2017-11-13T00:19:00.964Z,5.00
2017-11-13T00:19:35.068Z,5.60
2017-11-13T00:20:09.099Z,5.18
2017-11-13T00:20:43.124Z,4.18
2017-11-13T00:21:17.084Z,4.53
2017-11-13T00:21:50.984Z,4.68
2017-11-13T00:22:27.667Z,4.00
2017-11-13T00:23:01.536Z,4.95
2017-11-13T00:23:35.549Z,4.47
2017-11-13T00:24:09.421Z,4.68
2017-11-13T00:24:43.329Z,4.87
2017-11-13T00:25:17.191Z,4.72
2017-11-13T00:25:51.073Z,4.45
2017-11-13T00:26:24.948Z,5.15
2017-11-13T00:26:59.623Z,4.47
2017-11-13T00:27:33.636Z,4.60
2017-11-13T00:28:07.822Z,4.90
2017-11-13T00:28:42.036Z,4.30
2017-11-13T00:29:15.893Z,4.53
2017-11-13T00:29:49.915Z,4.82
2017-11-13T00:30:23.793Z,4.95
2017-11-13T00:30:57.668Z,5.68
2017-11-13T00:31:31.547Z,5.05
2017-11-13T00:32:05.443Z,5.10
2017-11-13T00:32:39.511Z,5.62
2017-11-13T00:33:13.391Z,5.22
2017-11-13T00:33:47.290Z,4.93
2017-11-13T00:34:21.502Z,5.43
2017-11-13T00:34:55.572Z,4.35
2017-11-13T00:35:29.546Z,5.35
2017-11-13T00:36:03.430Z,5.25
2017-11-13T00:36:37.334Z,6.18
2017-11-13T00:37:11.210Z,5.65
2017-11-13T00:37:45.075Z,5.80
2017-11-13T00:38:18.933Z,5.53
2017-11-13T00:38:52.791Z,6.03
2017-11-13T00:39:26.668Z,6.50
2017-11-13T00:40:00.672Z,6.62
2017-11-13T00:40:34.655Z,6.37
2017-11-13T00:41:08.536Z,6.12
2017-11-13T00:41:42.525Z,5.53
2017-11-13T00:42:16.436Z,6.35
2017-11-13T00:42:50.304Z,6.00
2017-11-13T00:43:24.821Z,5.45
2017-11-13T00:43:58.937Z,5.78
2017-11-13T00:44:32.810Z,6.40
2017-11-13T00:45:06.680Z,8.18
2017-11-13T00:45:40.563Z,6.03
2017-11-13T00:46:14.451Z,6.55
2017-11-13T00:46:48.525Z,6.45
2017-11-13T00:47:22.432Z,6.87
2017-11-13T00:47:56.305Z,6.05
2017-11-13T00:48:30.184Z,6.18
2017-11-13T00:49:04.212Z,6.10
2017-11-13T00:49:38.085Z,6.00
2017-11-13T00:50:12.117Z,6.25
2017-11-13T00:50:46.102Z,6.97
2017-11-13T00:51:19.974Z,6.15
2017-11-13T00:51:53.843Z,6.35
2017-11-13T00:52:27.712Z,6.30
2017-11-13T00:53:01.691Z,7.28
2017-11-13T00:53:35.695Z,6.90
2017-11-13T00:54:09.587Z,7.72
2017-11-13T00:54:43.585Z,6.35
2017-11-13T00:55:17.460Z,7.12
2017-11-13T00:55:51.320Z,7.65
2017-11-13T00:56:25.548Z,6.82
2017-11-13T00:56:59.471Z,7.37
2017-11-13T00:57:33.365Z,7.20
2017-11-13T00:58:07.249Z,6.37
2017-11-13T00:58:41.140Z,7.20
2017-11-13T00:59:15.143Z,6.37
2017-11-13T00:59:49.133Z,7.28
2017-11-13T01:00:23.145Z,8.07
2017-11-13T01:00:57.134Z,7.30
2017-11-13T01:01:30.999Z,7.65
2017-11-13T01:02:04.891Z,6.90
2017-11-13T01:02:38.794Z,6.25
2017-11-13T01:03:12.941Z,7.65
2017-11-13T01:03:46.819Z,6.00
2017-11-13T01:04:20.679Z,7.10
2017-11-13T01:04:54.608Z,7.18
2017-11-13T01:05:28.478Z,7.05
2017-11-13T01:06:02.389Z,7.30
2017-11-13T01:06:36.302Z,7.60
2017-11-13T01:07:10.183Z,7.40
2017-11-13T01:07:44.168Z,8.02
2017-11-13T01:08:18.282Z,7.25
2017-11-13T01:08:52.176Z,8.23
2017-11-13T01:09:26.049Z,6.95
2017-11-13T01:09:59.929Z,6.65
2017-11-13T01:10:34.080Z,7.80
2017-11-13T01:11:07.964Z,7.60
2017-11-13T01:11:41.957Z,7.20
2017-11-13T01:12:15.819Z,7.45
2017-11-13T01:12:49.713Z,6.62
2017-11-13T01:13:23.890Z,7.47
2017-11-13T01:13:57.869Z,8.07
2017-11-13T01:14:31.744Z,7.37
2017-11-13T01:15:05.655Z,7.50
2017-11-13T01:15:39.566Z,7.30
2017-11-13T01:16:13.734Z,7.25
2017-11-13T01:16:47.640Z,8.63
2017-11-13T01:17:21.763Z,8.23
2017-11-13T01:17:55.640Z,8.57
2017-11-13T01:18:29.520Z,8.07
2017-11-13T01:19:03.445Z,7.82
2017-11-13T01:19:37.308Z,7.32
2017-11-13T01:20:11.195Z,8.48
2017-11-13T01:20:45.102Z,9.60
2017-11-13T01:21:18.985Z,9.10
2017-11-13T01:21:53.017Z,8.25
2017-11-13T01:22:26.891Z,7.70
2017-11-13T01:23:00.772Z,8.60
2017-11-13T01:23:34.666Z,8.88
2017-11-13T01:24:08.676Z,7.87
2017-11-13T01:24:42.557Z,8.52
2017-11-13T01:25:16.472Z,8.50
2017-11-13T01:25:50.471Z,8.52
2017-11-13T01:26:24.343Z,8.57
2017-11-13T01:26:58.223Z,7.90
2017-11-13T01:27:32.084Z,8.57
2017-11-13T01:28:05.993Z,7.85
2017-11-13T01:28:39.942Z,8.15
2017-11-13T01:29:13.959Z,8.80
2017-11-13T01:29:47.831Z,9.55
2017-11-13T01:30:21.935Z,8.75
2017-11-13T01:30:55.832Z,8.77
2017-11-13T01:31:29.699Z,8.43
2017-11-13T01:32:03.564Z,8.20
2017-11-13T01:32:37.434Z,8.82
2017-11-13T01:33:11.321Z,8.90
2017-11-13T01:33:45.239Z,7.50
2017-11-13T01:34:19.107Z,9.68
2017-11-13T01:34:53.003Z,8.93
2017-11-13T01:35:27.119Z,8.25
2017-11-13T01:36:01.011Z,9.23
2017-11-13T01:36:34.895Z,9.00
2017-11-13T01:37:08.788Z,9.05
2017-11-13T01:37:42.692Z,8.68
2017-11-13T01:38:16.870Z,9.25
2017-11-13T01:38:50.908Z,8.75
2017-11-13T01:39:24.778Z,8.73
2017-11-13T01:39:58.651Z,9.43
2017-11-13T01:40:32.524Z,9.18
2017-11-13T01:41:06.409Z,8.45
2017-11-13T01:41:40.468Z,8.40
2017-11-13T01:42:14.331Z,9.65
2017-11-13T01:42:48.269Z,8.30
2017-11-13T01:43:22.145Z,10.52
2017-11-13T01:43:56.040Z,9.05
2017-11-13T01:44:29.934Z,8.88
2017-11-13T01:45:03.837Z,8.93
2017-11-13T01:45:37.822Z,9.45
2017-11-13T01:46:11.924Z,9.75
2017-11-13T01:46:45.794Z,9.77
2017-11-13T01:47:19.668Z,8.45
2017-11-13T01:47:53.552Z,8.90
2017-11-13T01:48:27.534Z,8.95
2017-11-13T01:49:01.402Z,9.57
2017-11-13T01:49:35.500Z,9.35
2017-11-13T01:50:09.476Z,9.77
2017-11-13T01:50:43.532Z,9.30
2017-11-13T01:51:17.802Z,8.40
2017-11-13T01:51:51.901Z,9.38
2017-11-13T01:52:25.969Z,9.30
2017-11-13T01:53:00.628Z,8.98
2017-11-13T01:53:34.503Z,9.57
2017-11-13T01:54:08.609Z,8.73
2017-11-13T01:54:42.490Z,9.50
2017-11-13T01:55:16.385Z,9.73
2017-11-13T01:55:50.265Z,10.38
2017-11-13T01:56:24.152Z,9.10
2017-11-13T01:56:58.101Z,8.77
2017-11-13T01:57:31.965Z,9.57
2017-11-13T01:58:05.836Z,9.65
2017-11-13T01:58:40.007Z,9.23
2017-11-13T01:59:13.972Z,9.75
2017-11-13T01:59:47.832Z,9.60
2017-11-13T02:00:21.772Z,9.93
2017-11-13T02:00:55.643Z,10.48
2017-11-13T02:01:29.512Z,9.85
2017-11-13T02:02:03.395Z,9.85
2017-11-13T02:02:37.265Z,10.18
2017-11-13T02:03:11.137Z,9.60
2017-11-13T02:03:45.032Z,10.57
2017-11-13T02:04:18.903Z,9.20
2017-11-13T02:04:52.776Z,10.45
2017-11-13T02:05:26.651Z,9.80
2017-11-13T02:06:00.544Z,9.23
2017-11-13T02:06:34.415Z,8.90
2017-11-13T02:07:08.305Z,9.10
2017-11-13T02:07:42.177Z,9.20
2017-11-13T02:08:16.196Z,9.73
2017-11-13T02:08:50.063Z,10.85
2017-11-13T02:09:23.933Z,8.65
2017-11-13T02:09:57.885Z,9.35
2017-11-13T02:10:31.749Z,9.90
2017-11-13T02:11:05.643Z,9.25
2017-11-13T02:11:39.531Z,11.02
2017-11-13T02:12:13.429Z,11.32
2017-11-13T02:12:47.596Z,10.50
2017-11-13T02:13:21.561Z,10.55
2017-11-13T02:13:55.447Z,9.60
2017-11-13T02:14:29.341Z,10.15
2017-11-13T02:15:03.246Z,9.82
2017-11-13T02:15:37.126Z,10.25
2017-11-13T02:16:11.183Z,11.73
2017-11-13T02:16:45.066Z,9.52
2017-11-13T02:17:19.652Z,10.63
2017-11-13T02:17:53.523Z,10.75
2017-11-13T02:18:27.542Z,11.38
2017-11-13T02:19:01.424Z,11.23
2017-11-13T02:19:35.308Z,11.48
2017-11-13T02:20:09.196Z,11.82
2017-11-13T02:20:43.052Z,10.90
2017-11-13T02:21:16.928Z,10.70
2017-11-13T02:21:50.787Z,11.35
2017-11-13T02:22:24.656Z,10.93
2017-11-13T02:22:58.576Z,10.68
2017-11-13T02:23:32.453Z,11.57
2017-11-13T02:24:06.363Z,11.27
2017-11-13T02:24:40.235Z,11.60
2017-11-13T02:25:14.394Z,12.00
2017-11-13T02:25:48.296Z,11.30
2017-11-13T02:26:22.177Z,10.75
2017-11-13T02:26:56.066Z,12.02
2017-11-13T02:27:29.977Z,10.73
2017-11-13T02:28:03.857Z,11.55
2017-11-13T02:28:37.751Z,10.95
2017-11-13T02:29:11.660Z,10.43
2017-11-13T02:29:45.538Z,11.52
2017-11-13T02:30:19.416Z,11.12
2017-11-13T02:30:53.291Z,11.25
2017-11-13T02:31:27.156Z,11.25
2017-11-13T02:32:01.037Z,11.45
2017-11-13T02:32:35.038Z,11.25
2017-11-13T02:33:08.923Z,11.93
2017-11-13T02:33:42.820Z,10.88
2017-11-13T02:34:16.709Z,11.98
2017-11-13T02:34:50.598Z,10.50
2017-11-13T02:35:24.482Z,11.30
2017-11-13T02:35:58.355Z,10.80
2017-11-13T02:36:32.432Z,11.10
2017-11-13T02:37:06.319Z,11.15
2017-11-13T02:37:40.217Z,10.27
2017-11-13T02:38:14.095Z,11.50
2017-11-13T02:38:47.964Z,11.35
2017-11-13T02:39:21.860Z,10.45
2017-11-13T02:39:55.740Z,10.82
2017-11-13T02:40:29.763Z,11.32
2017-11-13T02:41:03.970Z,10.70
2017-11-13T02:41:37.852Z,12.05
2017-11-13T02:42:11.737Z,10.25
2017-11-13T02:42:45.607Z,10.70
2017-11-13T02:43:19.478Z,10.93
2017-11-13T02:43:53.381Z,11.80
2017-11-13T02:44:27.272Z,10.70
2017-11-13T02:45:01.337Z,11.73
2017-11-13T02:45:35.220Z,11.57
2017-11-13T02:46:09.126Z,11.12
2017-11-13T02:46:43.003Z,11.20
2017-11-13T02:47:16.872Z,11.15
2017-11-13T02:47:50.791Z,10.68
2017-11-13T02:48:24.708Z,11.05
2017-11-13T02:48:58.580Z,11.35
2017-11-13T02:49:32.544Z,11.23
2017-11-13T02:50:06.700Z,10.43
2017-11-13T02:50:40.570Z,11.68
2017-11-13T02:51:14.451Z,11.27
2017-11-13T02:51:48.336Z,12.18
2017-11-13T02:52:22.487Z,10.07
2017-11-13T02:52:56.397Z,11.35
2017-11-13T02:53:30.377Z,10.48
2017-11-13T02:54:04.252Z,11.48
2017-11-13T02:54:38.140Z,10.50
2017-11-13T02:55:12.037Z,10.82
2017-11-13T02:55:45.970Z,11.73
2017-11-13T02:56:19.896Z,11.55
2017-11-13T02:56:53.769Z,12.18
2017-11-13T02:57:27.651Z,10.63
2017-11-13T02:58:01.556Z,11.63
2017-11-13T02:58:35.424Z,11.45
2017-11-13T02:59:09.296Z,12.02
2017-11-13T02:59:43.342Z,12.63
2017-11-13T03:00:17.213Z,11.93
2017-11-13T03:00:51.136Z,11.32
2017-11-13T03:01:25.029Z,11.90
2017-11-13T03:01:58.898Z,11.43
2017-11-13T03:02:32.814Z,12.23
2017-11-13T03:03:06.664Z,11.70
2017-11-13T03:03:40.558Z,11.85
2017-11-13T03:04:14.600Z,11.73
2017-11-13T03:04:48.627Z,11.52
2017-11-13T03:05:22.509Z,12.18
2017-11-13T03:05:56.588Z,11.73
2017-11-13T03:06:30.609Z,11.52
2017-11-13T03:07:04.479Z,10.98
2017-11-13T03:07:38.375Z,12.70
2017-11-13T03:08:12.282Z,11.90
2017-11-13T03:08:46.144Z,11.43
2017-11-13T03:09:20.019Z,11.43
2017-11-13T03:09:53.908Z,12.63
2017-11-13T03:10:27.852Z,12.65
2017-11-13T03:11:01.737Z,11.95
2017-11-13T03:11:35.630Z,11.65
2017-11-13T03:12:09.502Z,12.13
2017-11-13T03:12:43.537Z,11.90
2017-11-13T03:13:17.420Z,12.20
2017-11-13T03:13:51.499Z,12.23
2017-11-13T03:14:25.479Z,13.10
2017-11-13T03:14:59.541Z,13.45
2017-11-13T03:15:33.409Z,13.73
2017-11-13T03:16:07.402Z,11.57
2017-11-13T03:16:41.302Z,13.50
2017-11-13T03:17:15.196Z,13.27
2017-11-13T03:17:49.051Z,13.35
2017-11-13T03:18:22.919Z,11.90
2017-11-13T03:18:56.896Z,11.85
2017-11-13T03:19:30.764Z,13.70
2017-11-13T03:20:04.663Z,12.57
2017-11-13T03:20:38.533Z,13.45
2017-11-13T03:21:12.402Z,13.02
2017-11-13T03:21:46.475Z,12.68
2017-11-13T03:22:20.705Z,13.35
2017-11-13T03:22:54.868Z,12.90
2017-11-13T03:23:28.754Z,13.50
2017-11-13T03:24:02.784Z,14.75
2017-11-13T03:24:36.671Z,15.00
2017-11-13T03:25:10.572Z,14.30
2017-11-13T03:25:44.472Z,13.02
2017-11-13T03:26:18.333Z,12.98
2017-11-13T03:26:52.201Z,13.43
2017-11-13T03:27:26.249Z,13.40
2017-11-13T03:28:00.123Z,13.20
2017-11-13T03:28:33.992Z,12.85
2017-11-13T03:29:08.096Z,13.10
2017-11-13T03:29:41.964Z,13.25
2017-11-13T03:30:16.064Z,13.25
2017-11-13T03:30:49.930Z,13.68
2017-11-13T03:31:23.928Z,13.30
2017-11-13T03:31:57.820Z,13.50
2017-11-13T03:32:31.695Z,13.27
2017-11-13T03:33:05.561Z,12.75
2017-11-13T03:33:39.483Z,13.20
2017-11-13T03:34:13.423Z,14.98
2017-11-13T03:34:47.294Z,14.38
2017-11-13T03:35:21.189Z,13.68
2017-11-13T03:35:55.080Z,13.30
2017-11-13T03:36:28.989Z,13.18
2017-11-13T03:37:03.000Z,13.32
2017-11-13T03:37:36.871Z,14.10
2017-11-13T03:38:10.752Z,14.57
2017-11-13T03:38:44.611Z,14.85
2017-11-13T03:39:18.578Z,13.90
2017-11-13T03:39:52.457Z,15.05
2017-11-13T03:40:26.456Z,14.38
2017-11-13T03:41:00.326Z,15.13
2017-11-13T03:41:34.226Z,14.15
2017-11-13T03:42:08.213Z,15.98
2017-11-13T03:42:42.077Z,15.40
2017-11-13T03:43:15.958Z,14.32
2017-11-13T03:43:49.838Z,15.52
2017-11-13T03:44:23.732Z,14.60
2017-11-13T03:44:57.627Z,15.60
2017-11-13T03:45:31.524Z,15.05
2017-11-13T03:46:05.428Z,14.87
2017-11-13T03:46:39.433Z,15.52
2017-11-13T03:47:13.312Z,15.13
2017-11-13T03:47:47.205Z,14.30
2017-11-13T03:48:21.087Z,13.80
2017-11-13T03:48:54.968Z,14.80
2017-11-13T03:49:28.992Z,16.23
2017-11-13T03:50:02.989Z,15.35
2017-11-13T03:50:36.904Z,15.65
2017-11-13T03:51:10.989Z,15.88
2017-11-13T03:51:44.865Z,14.80
2017-11-13T03:52:18.764Z,15.90
2017-11-13T03:52:52.673Z,15.80
2017-11-13T03:53:26.671Z,14.20
2017-11-13T03:54:00.561Z,16.23
2017-11-13T03:54:34.440Z,15.40
2017-11-13T03:55:08.319Z,16.17
2017-11-13T03:55:42.206Z,15.73
2017-11-13T03:56:16.092Z,16.05
2017-11-13T03:56:50.135Z,15.50
2017-11-13T03:57:24.141Z,15.77
2017-11-13T03:57:58.265Z,14.77
2017-11-13T03:58:32.149Z,15.25
2017-11-13T03:59:06.158Z,15.65
2017-11-13T03:59:40.025Z,14.52
2017-11-13T04:00:13.911Z,13.45
2017-11-13T04:00:47.808Z,14.90
2017-11-13T04:01:21.788Z,15.25
2017-11-13T04:01:56.496Z,15.98
2017-11-13T04:02:30.752Z,15.48
2017-11-13T04:03:04.629Z,16.08
2017-11-13T04:03:38.505Z,15.75
2017-11-13T04:04:12.545Z,14.75
2017-11-13T04:04:46.418Z,16.48
2017-11-13T04:05:20.416Z,16.10
2017-11-13T04:05:54.418Z,14.50
2017-11-13T04:06:28.510Z,15.65
2017-11-13T04:07:02.968Z,15.50
2017-11-13T04:07:36.855Z,15.52
2017-11-13T04:08:10.927Z,15.35
2017-11-13T04:08:44.922Z,16.83
2017-11-13T04:09:18.807Z,15.55
2017-11-13T04:09:52.674Z,14.77
2017-11-13T04:10:26.696Z,15.23
2017-11-13T04:11:00.590Z,15.77
2017-11-13T04:11:34.462Z,15.93
2017-11-13T04:12:08.385Z,15.52
2017-11-13T04:12:42.263Z,15.85
2017-11-13T04:13:16.167Z,16.50
2017-11-13T04:13:50.040Z,15.00
2017-11-13T04:14:23.931Z,16.20
2017-11-13T04:14:57.813Z,15.07
2017-11-13T04:15:31.760Z,15.45
2017-11-13T04:16:05.656Z,16.98
2017-11-13T04:16:39.537Z,15.27
2017-11-13T04:17:13.445Z,15.40
2017-11-13T04:17:47.324Z,16.37
2017-11-13T04:18:21.336Z,16.17
2017-11-13T04:18:55.221Z,16.12
2017-11-13T04:19:29.086Z,15.90
2017-11-13T04:20:02.985Z,16.92
2017-11-13T04:20:36.866Z,16.27
2017-11-13T04:21:10.772Z,17.52
2017-11-13T04:21:44.722Z,18.42
2017-11-13T04:22:18.584Z,16.33
2017-11-13T04:22:52.458Z,15.90
2017-11-13T04:23:26.352Z,15.45
2017-11-13T04:24:00.243Z,16.17
2017-11-13T04:24:34.140Z,16.90
2017-11-13T04:25:08.086Z,15.38
2017-11-13T04:25:41.959Z,15.27
2017-11-13T04:26:15.891Z,15.27
2017-11-13T04:26:50.171Z,15.57
2017-11-13T04:27:24.048Z,15.40
2017-11-13T04:27:57.983Z,15.20
2017-11-13T04:28:31.965Z,16.27
2017-11-13T04:29:05.863Z,15.32
2017-11-13T04:29:39.743Z,16.05
2017-11-13T04:30:13.845Z,16.85
2017-11-13T04:30:47.826Z,16.17
2017-11-13T04:31:21.708Z,16.15
2017-11-13T04:31:55.598Z,14.87
2017-11-13T04:32:29.493Z,14.75
2017-11-13T04:33:03.424Z,15.80
2017-11-13T04:33:37.329Z,15.65
2017-11-13T04:34:11.214Z,15.43
2017-11-13T04:34:45.084Z,14.95
2017-11-13T04:35:18.963Z,14.73
2017-11-13T04:35:52.920Z,15.40
2017-11-13T04:36:26.808Z,14.87
2017-11-13T04:37:00.689Z,14.25
2017-11-13T04:37:34.577Z,16.42
2017-11-13T04:38:08.507Z,15.75
2017-11-13T04:38:42.372Z,15.35
2017-11-13T04:39:16.255Z,14.87
2017-11-13T04:39:50.168Z,15.65
2017-11-13T04:40:24.175Z,15.35
2017-11-13T04:40:58.368Z,14.90
2017-11-13T04:41:32.278Z,15.43
2017-11-13T04:42:06.172Z,15.13
2017-11-13T04:42:40.073Z,15.35
2017-11-13T04:43:14.060Z,15.23
2017-11-13T04:43:48.066Z,13.80
2017-11-13T04:44:21.956Z,15.30
2017-11-13T04:44:55.980Z,14.70
2017-11-13T04:45:29.942Z,15.20
2017-11-13T04:46:03.815Z,13.77
2017-11-13T04:46:37.712Z,14.82
2017-11-13T04:47:11.588Z,14.35
2017-11-13T04:47:45.633Z,17.10
2017-11-13T04:48:19.529Z,15.05
2017-11-13T04:48:53.414Z,15.43
2017-11-13T04:49:27.497Z,15.70
2017-11-13T04:50:01.639Z,14.75
2017-11-13T04:50:35.543Z,14.82
2017-11-13T04:51:09.426Z,14.50
2017-11-13T04:51:43.439Z,14.45
2017-11-13T04:52:17.314Z,15.82
2017-11-13T04:52:51.324Z,14.15
2017-11-13T04:53:25.212Z,14.38
2017-11-13T04:53:59.081Z,15.15
2017-11-13T04:54:32.951Z,14.90
2017-11-13T04:55:06.826Z,14.73
2017-11-13T04:55:40.872Z,15.70
2017-11-13T04:56:14.768Z,14.70
2017-11-13T04:56:48.695Z,16.35
2017-11-13T04:57:22.596Z,15.15
2017-11-13T04:57:56.762Z,15.82
2017-11-13T04:58:30.981Z,15.05
2017-11-13T04:59:04.847Z,13.32
2017-11-13T04:59:39.369Z,14.55
2017-11-13T05:00:13.235Z,14.70
2017-11-13T05:00:47.107Z,15.60
2017-11-13T05:01:21.061Z,14.75
2017-11-13T05:01:54.972Z,15.20
2017-11-13T05:02:28.853Z,14.98
2017-11-13T05:03:02.732Z,15.73
2017-11-13T05:03:36.600Z,14.80
2017-11-13T05:04:10.484Z,15.52
2017-11-13T05:04:44.369Z,14.77
2017-11-13T05:05:18.236Z,15.27
2017-11-13T05:05:52.122Z,20.30
2017-11-13T05:06:25.991Z,22.08
2017-11-13T05:07:00.026Z,18.80
2017-11-13T05:07:33.916Z,16.55
2017-11-13T05:08:07.801Z,15.80
2017-11-13T05:08:41.812Z,16.12
2017-11-13T05:09:15.676Z,17.48
2017-11-13T05:09:49.559Z,16.98
2017-11-13T05:10:23.439Z,15.40
2017-11-13T05:10:57.342Z,16.58
2017-11-13T05:11:31.392Z,15.18
2017-11-13T05:12:05.316Z,15.48
2017-11-13T05:12:39.175Z,14.27
2017-11-13T05:13:13.164Z,17.33
2017-11-13T05:13:47.028Z,15.73
2017-11-13T05:14:20.936Z,16.15
2017-11-13T05:14:54.800Z,16.33
2017-11-13T05:15:28.868Z,14.45
2017-11-13T05:16:02.749Z,16.00
2017-11-13T05:16:36.639Z,15.93
2017-11-13T05:17:10.536Z,14.40
2017-11-13T05:17:44.432Z,14.98
2017-11-13T05:18:18.312Z,16.58
2017-11-13T05:18:52.245Z,15.18
2017-11-13T05:19:26.116Z,14.75
2017-11-13T05:19:59.987Z,16.33
2017-11-13T05:20:34.276Z,16.00
2017-11-13T05:21:08.148Z,15.68
2017-11-13T05:21:42.008Z,17.10
2017-11-13T05:22:15.921Z,17.75
2017-11-13T05:22:50.099Z,16.05
2017-11-13T05:23:23.965Z,15.80
2017-11-13T05:23:57.893Z,16.25
2017-11-13T05:24:31.783Z,17.02
2017-11-13T05:25:05.651Z,16.70
2017-11-13T05:25:39.519Z,16.40
2017-11-13T05:26:13.382Z,16.50
2017-11-13T05:26:47.264Z,17.85
2017-11-13T05:27:21.229Z,17.48
2017-11-13T05:27:55.116Z,17.60
2017-11-13T05:28:28.981Z,17.05
2017-11-13T05:29:02.859Z,16.48
2017-11-13T05:29:36.851Z,16.92
2017-11-13T05:30:10.853Z,18.52
2017-11-13T05:30:44.823Z,17.50
2017-11-13T05:31:18.836Z,17.55
2017-11-13T05:31:53.063Z,18.30
2017-11-13T05:32:26.958Z,17.55
2017-11-13T05:33:00.825Z,18.02
2017-11-13T05:33:34.712Z,18.58
2017-11-13T05:34:08.643Z,19.95
2017-11-13T05:34:42.533Z,18.73
2017-11-13T05:35:16.407Z,18.08
2017-11-13T05:35:50.408Z,19.00
2017-11-13T05:36:24.283Z,20.62
2017-11-13T05:36:58.218Z,19.60
2017-11-13T05:37:32.120Z,17.75
2017-11-13T05:38:06.097Z,17.80
2017-11-13T05:38:39.971Z,19.20
2017-11-13T05:39:14.002Z,19.95
2017-11-13T05:39:47.867Z,17.90
2017-11-13T05:40:21.748Z,19.35
2017-11-13T05:40:55.645Z,17.95
2017-11-13T05:41:29.528Z,18.92
2017-11-13T05:42:03.477Z,19.55
2017-11-13T05:42:37.511Z,19.92
2017-11-13T05:43:11.389Z,20.25
2017-11-13T05:43:45.246Z,19.92
2017-11-13T05:44:19.120Z,19.98
2017-11-13T05:44:52.994Z,19.62
2017-11-13T05:45:26.956Z,18.55
2017-11-13T05:46:00.843Z,19.87
2017-11-13T05:46:34.735Z,18.25
2017-11-13T05:47:08.631Z,18.92
2017-11-13T05:47:42.515Z,19.87
2017-11-13T05:48:16.386Z,19.55
2017-11-13T05:48:50.273Z,19.52
2017-11-13T05:49:24.165Z,18.30
2017-11-13T05:49:58.064Z,19.87
2017-11-13T05:50:32.069Z,20.10
2017-11-13T05:51:05.938Z,19.52
2017-11-13T05:51:39.815Z,20.55
2017-11-13T05:52:13.683Z,22.20
2017-11-13T05:52:47.596Z,20.75
2017-11-13T05:53:21.480Z,21.02
2017-11-13T05:53:55.393Z,22.08
2017-11-13T05:54:29.568Z,20.48
2017-11-13T05:55:03.466Z,20.95
2017-11-13T05:55:37.363Z,21.62
2017-11-13T05:56:11.233Z,20.35
2017-11-13T05:56:45.276Z,21.12
2017-11-13T05:57:19.161Z,21.35
2017-11-13T05:57:53.257Z,21.08
2017-11-13T05:58:27.166Z,21.98
2017-11-13T05:59:01.064Z,21.10
2017-11-13T05:59:34.953Z,21.73
2017-11-13T06:00:08.988Z,21.83
2017-11-13T06:00:42.981Z,19.52
2017-11-13T06:01:16.859Z,20.10
2017-11-13T06:01:51.041Z,21.90
2017-11-13T06:02:24.940Z,20.90
2017-11-13T06:02:58.881Z,20.88
2017-11-13T06:03:32.760Z,19.10
2017-11-13T06:04:06.726Z,19.80
2017-11-13T06:04:40.624Z,19.33
2017-11-13T06:05:14.741Z,19.50
2017-11-13T06:05:48.607Z,21.17
2017-11-13T06:06:22.477Z,21.12
2017-11-13T06:06:56.501Z,22.42
2017-11-13T06:07:30.455Z,22.77
2017-11-13T06:08:04.531Z,22.50
2017-11-13T06:08:38.475Z,20.50
2017-11-13T06:09:12.387Z,22.10
2017-11-13T06:09:46.278Z,22.05
2017-11-13T06:10:20.379Z,21.02
2017-11-13T06:10:54.403Z,19.12
2017-11-13T06:11:29.114Z,18.58
2017-11-13T06:12:03.830Z,19.48
2017-11-13T06:12:37.941Z,20.55
2017-11-13T06:13:11.973Z,19.98
2017-11-13T06:13:45.897Z,21.30
2017-11-13T06:14:19.772Z,20.55
2017-11-13T06:14:53.648Z,21.48
2017-11-13T06:15:27.516Z,19.87
2017-11-13T06:16:01.424Z,18.83
2017-11-13T06:16:35.380Z,21.05
2017-11-13T06:17:09.271Z,23.95
2017-11-13T06:17:43.162Z,21.20
2017-11-13T06:18:17.160Z,19.33
2017-11-13T06:18:51.060Z,19.10
2017-11-13T06:19:24.969Z,19.15
2017-11-13T06:19:58.851Z,19.35
2017-11-13T06:20:32.781Z,18.92
2017-11-13T06:21:06.878Z,20.20
2017-11-13T06:21:40.752Z,20.08
2017-11-13T06:22:14.634Z,21.05
2017-11-13T06:22:48.639Z,22.87
2017-11-13T06:23:22.624Z,20.58
2017-11-13T06:23:56.753Z,21.12
2017-11-13T06:24:30.712Z,19.37
2017-11-13T06:25:04.749Z,20.67
2017-11-13T06:25:38.616Z,19.42
2017-11-13T06:26:12.641Z,18.25
2017-11-13T06:26:46.519Z,20.95
2017-11-13T06:27:20.535Z,19.90
2017-11-13T06:27:54.451Z,21.48
2017-11-13T06:28:28.338Z,19.75
2017-11-13T06:29:02.217Z,19.58
2017-11-13T06:29:36.123Z,18.58
2017-11-13T06:30:10.005Z,19.50
2017-11-13T06:30:43.882Z,19.10
2017-11-13T06:31:18.676Z,17.90
2017-11-13T06:31:52.746Z,17.50
2017-11-13T06:32:26.634Z,17.85
2017-11-13T06:33:00.649Z,17.23
2017-11-13T06:33:34.526Z,19.67
2017-11-13T06:34:08.464Z,18.87
2017-11-13T06:34:42.359Z,18.00
2017-11-13T06:35:16.245Z,18.83
2017-11-13T06:35:50.177Z,19.05
2017-11-13T06:36:24.078Z,20.88
2017-11-13T06:36:58.284Z,18.23
2017-11-13T06:37:32.724Z,18.45
2017-11-13T06:38:07.316Z,17.23
2017-11-13T06:38:42.250Z,19.95
2017-11-13T06:39:16.208Z,18.98
2017-11-13T06:39:50.335Z,18.37
2017-11-13T06:40:24.312Z,18.25
2017-11-13T06:40:59.242Z,18.30
2017-11-13T06:41:34.990Z,19.12
2017-11-13T06:42:09.893Z,19.15
2017-11-13T06:42:43.780Z,19.65
2017-11-13T06:43:17.689Z,19.37
2017-11-13T06:43:52.802Z,18.48
2017-11-13T06:44:28.306Z,17.60
2017-11-13T06:45:02.652Z,17.90
2017-11-13T06:45:37.056Z,19.60
2017-11-13T06:46:12.994Z,18.90
2017-11-13T06:46:46.934Z,20.67
2017-11-13T06:47:21.348Z,18.42
2017-11-13T06:47:55.538Z,19.20
2017-11-13T06:48:30.953Z,19.90
2017-11-13T06:49:04.952Z,18.70
2017-11-13T06:49:39.726Z,19.52
2017-11-13T06:50:15.556Z,19.58
2017-11-13T06:50:50.049Z,18.87
2017-11-13T06:51:24.495Z,17.92
2017-11-13T06:51:58.607Z,18.23
2017-11-13T06:52:33.614Z,18.58
2017-11-13T06:53:07.625Z,17.62
2017-11-13T06:53:42.071Z,18.52
2017-11-13T06:54:17.144Z,18.75
2017-11-13T06:54:51.292Z,22.10
2017-11-13T06:55:26.783Z,20.33
2017-11-13T06:56:01.243Z,20.77
2017-11-13T06:56:37.541Z,19.52
2017-11-13T06:57:11.826Z,17.98
2017-11-13T06:57:45.732Z,19.80
2017-11-13T06:58:19.760Z,20.02
2017-11-13T06:58:53.972Z,19.90
2017-11-13T06:59:28.301Z,17.23
2017-11-13T07:00:02.593Z,17.33
2017-11-13T07:00:37.841Z,18.37
2017-11-13T07:01:11.752Z,17.92
2017-11-13T07:01:47.121Z,18.80
2017-11-13T07:02:22.077Z,18.90
2017-11-13T07:02:56.177Z,19.70
2017-11-13T07:03:30.985Z,18.27
2017-11-13T07:04:05.260Z,18.58
2017-11-13T07:04:39.195Z,21.35
2017-11-13T07:05:13.566Z,18.92
2017-11-13T07:05:48.754Z,18.87
2017-11-13T07:06:23.495Z,19.35
2017-11-13T07:06:58.213Z,19.60
2017-11-13T07:07:33.502Z,18.42
2017-11-13T07:08:08.576Z,18.23
2017-11-13T07:08:43.120Z,19.37
2017-11-13T07:09:17.553Z,18.20
2017-11-13T07:09:52.378Z,18.37
2017-11-13T07:10:27.020Z,18.87
2017-11-13T07:11:03.755Z,21.83
2017-11-13T07:11:38.049Z,17.52
2017-11-13T07:12:12.759Z,17.85
2017-11-13T07:12:47.238Z,19.27
2017-11-13T07:13:22.452Z,17.15
2017-11-13T07:13:56.827Z,17.10
2017-11-13T07:14:30.736Z,18.30
2017-11-13T07:15:07.347Z,18.30
2017-11-13T07:15:41.892Z,18.00
2017-11-13T07:16:16.527Z,18.12
2017-11-13T07:16:50.755Z,18.33
2017-11-13T07:17:26.420Z,17.40
2017-11-13T07:18:00.370Z,17.80
2017-11-13T07:18:34.274Z,17.87
2017-11-13T07:19:08.231Z,17.10
2017-11-13T07:19:42.124Z,19.65
2017-11-13T07:20:16.169Z,18.42
2017-11-13T07:20:50.245Z,18.40
2017-11-13T07:21:24.112Z,17.52
2017-11-13T07:21:58.273Z,18.60
2017-11-13T07:22:32.351Z,17.52